sensor_id;sensor_type;location;lat;lon;timestamp;P1;durP1;ratioP1;P2;durP2;ratioP2
8007;SDS011;4049;49.468;11.200;2023-03-01T00:00:52;21.10;;;10.80;;
8007;SDS011;4049;49.468;11.200;2023-03-01T00:03:21;17.47;;;9.13;;
8007;SDS011;4049;49.468;11.200;2023-03-01T00:05:47;17.90;;;9.17;;
8007;SDS011;4049;49.468;11.200;2023-03-01T00:08:14;16.60;;;8.80;;
8007;SDS011;4049;49.468;11.200;2023-03-01T00:10:41;16.60;;;9.27;;
8007;SDS011;4049;49.468;11.200;2023-03-01T00:13:08;16.37;;;8.80;;
8007;SDS011;4049;49.468;11.200;2023-03-01T00:15:37;20.13;;;9.87;;
8007;SDS011;4049;49.468;11.200;2023-03-01T00:18:05;19.17;;;9.60;;
8007;SDS011;4049;49.468;11.200;2023-03-01T00:20:33;19.50;;;9.20;;
8007;SDS011;4049;49.468;11.200;2023-03-01T00:23:00;19.50;;;9.83;;
8007;SDS011;4049;49.468;11.200;2023-03-01T00:25:30;18.87;;;9.77;;
8007;SDS011;4049;49.468;11.200;2023-03-01T00:27:57;19.40;;;8.80;;
8007;SDS011;4049;49.468;11.200;2023-03-01T00:30:23;14.00;;;7.93;;
8007;SDS011;4049;49.468;11.200;2023-03-01T00:32:50;22.27;;;9.50;;
8007;SDS011;4049;49.468;11.200;2023-03-01T00:35:17;15.53;;;8.30;;
8007;SDS011;4049;49.468;11.200;2023-03-01T00:37:46;19.87;;;9.70;;
8007;SDS011;4049;49.468;11.200;2023-03-01T00:40:13;18.13;;;8.97;;
8007;SDS011;4049;49.468;11.200;2023-03-01T00:42:41;20.90;;;9.47;;
8007;SDS011;4049;49.468;11.200;2023-03-01T00:45:08;17.47;;;8.67;;
8007;SDS011;4049;49.468;11.200;2023-03-01T00:47:35;21.53;;;10.27;;
8007;SDS011;4049;49.468;11.200;2023-03-01T00:50:02;20.07;;;10.13;;
8007;SDS011;4049;49.468;11.200;2023-03-01T00:52:29;25.63;;;10.33;;
8007;SDS011;4049;49.468;11.200;2023-03-01T00:54:57;22.67;;;10.63;;
8007;SDS011;4049;49.468;11.200;2023-03-01T00:57:24;22.10;;;10.07;;
8007;SDS011;4049;49.468;11.200;2023-03-01T00:59:51;21.83;;;9.73;;
8007;SDS011;4049;49.468;11.200;2023-03-01T01:02:18;24.20;;;10.03;;
8007;SDS011;4049;49.468;11.200;2023-03-01T01:04:45;18.80;;;9.20;;
8007;SDS011;4049;49.468;11.200;2023-03-01T01:07:13;22.03;;;10.47;;
8007;SDS011;4049;49.468;11.200;2023-03-01T01:09:40;18.07;;;9.70;;
8007;SDS011;4049;49.468;11.200;2023-03-01T01:12:08;18.03;;;9.40;;
8007;SDS011;4049;49.468;11.200;2023-03-01T01:14:35;19.70;;;9.83;;
8007;SDS011;4049;49.468;11.200;2023-03-01T01:17:02;19.07;;;8.80;;
8007;SDS011;4049;49.468;11.200;2023-03-01T01:19:29;22.27;;;10.23;;
8007;SDS011;4049;49.468;11.200;2023-03-01T01:21:57;21.90;;;10.27;;
8007;SDS011;4049;49.468;11.200;2023-03-01T01:24:23;20.90;;;9.87;;
8007;SDS011;4049;49.468;11.200;2023-03-01T01:26:50;21.60;;;10.13;;
8007;SDS011;4049;49.468;11.200;2023-03-01T01:29:18;19.43;;;9.17;;
8007;SDS011;4049;49.468;11.200;2023-03-01T01:31:45;21.73;;;9.93;;
8007;SDS011;4049;49.468;11.200;2023-03-01T01:34:13;21.07;;;9.93;;
8007;SDS011;4049;49.468;11.200;2023-03-01T01:36:41;21.40;;;10.13;;
8007;SDS011;4049;49.468;11.200;2023-03-01T01:39:09;18.17;;;9.60;;
8007;SDS011;4049;49.468;11.200;2023-03-01T01:41:38;20.83;;;9.40;;
8007;SDS011;4049;49.468;11.200;2023-03-01T01:44:11;22.57;;;10.27;;
8007;SDS011;4049;49.468;11.200;2023-03-01T01:46:42;20.70;;;9.23;;
8007;SDS011;4049;49.468;11.200;2023-03-01T01:49:16;22.27;;;10.17;;
8007;SDS011;4049;49.468;11.200;2023-03-01T01:51:49;22.40;;;9.60;;
8007;SDS011;4049;49.468;11.200;2023-03-01T01:54:23;21.87;;;10.00;;
8007;SDS011;4049;49.468;11.200;2023-03-01T01:56:55;24.53;;;9.83;;
8007;SDS011;4049;49.468;11.200;2023-03-01T01:59:25;18.50;;;9.30;;
8007;SDS011;4049;49.468;11.200;2023-03-01T02:01:56;18.80;;;9.57;;
8007;SDS011;4049;49.468;11.200;2023-03-01T02:04:25;21.33;;;9.80;;
8007;SDS011;4049;49.468;11.200;2023-03-01T02:06:54;21.17;;;9.93;;
8007;SDS011;4049;49.468;11.200;2023-03-01T02:09:26;20.47;;;9.70;;
8007;SDS011;4049;49.468;11.200;2023-03-01T02:11:54;17.53;;;9.47;;
8007;SDS011;4049;49.468;11.200;2023-03-01T02:14:21;22.27;;;10.13;;
8007;SDS011;4049;49.468;11.200;2023-03-01T02:16:47;23.10;;;10.57;;
8007;SDS011;4049;49.468;11.200;2023-03-01T02:19:19;20.13;;;9.93;;
8007;SDS011;4049;49.468;11.200;2023-03-01T02:21:56;21.83;;;10.40;;
8007;SDS011;4049;49.468;11.200;2023-03-01T02:24:32;21.77;;;10.40;;
8007;SDS011;4049;49.468;11.200;2023-03-01T02:27:12;17.80;;;9.13;;
8007;SDS011;4049;49.468;11.200;2023-03-01T02:29:42;22.43;;;10.53;;
8007;SDS011;4049;49.468;11.200;2023-03-01T02:32:09;20.80;;;10.13;;
8007;SDS011;4049;49.468;11.200;2023-03-01T02:34:37;25.63;;;11.00;;
8007;SDS011;4049;49.468;11.200;2023-03-01T02:37:06;27.43;;;10.90;;
8007;SDS011;4049;49.468;11.200;2023-03-01T02:39:38;21.10;;;9.77;;
8007;SDS011;4049;49.468;11.200;2023-03-01T02:42:09;16.87;;;9.47;;
8007;SDS011;4049;49.468;11.200;2023-03-01T02:44:38;22.47;;;10.20;;
8007;SDS011;4049;49.468;11.200;2023-03-01T02:47:06;23.93;;;10.73;;
8007;SDS011;4049;49.468;11.200;2023-03-01T02:49:34;17.87;;;9.33;;
8007;SDS011;4049;49.468;11.200;2023-03-01T02:52:08;25.83;;;10.77;;
8007;SDS011;4049;49.468;11.200;2023-03-01T02:54:49;21.20;;;9.77;;
8007;SDS011;4049;49.468;11.200;2023-03-01T02:57:18;20.87;;;9.77;;
8007;SDS011;4049;49.468;11.200;2023-03-01T02:59:47;29.83;;;10.23;;
8007;SDS011;4049;49.468;11.200;2023-03-01T03:02:22;22.77;;;10.00;;
8007;SDS011;4049;49.468;11.200;2023-03-01T03:05:01;20.70;;;9.93;;
8007;SDS011;4049;49.468;11.200;2023-03-01T03:07:33;21.20;;;10.13;;
8007;SDS011;4049;49.468;11.200;2023-03-01T03:10:01;26.37;;;10.53;;
8007;SDS011;4049;49.468;11.200;2023-03-01T03:12:28;22.80;;;10.00;;
8007;SDS011;4049;49.468;11.200;2023-03-01T03:14:55;20.77;;;10.23;;
8007;SDS011;4049;49.468;11.200;2023-03-01T03:17:23;25.10;;;10.73;;
8007;SDS011;4049;49.468;11.200;2023-03-01T03:19:50;20.83;;;10.03;;
8007;SDS011;4049;49.468;11.200;2023-03-01T03:22:17;31.27;;;10.67;;
8007;SDS011;4049;49.468;11.200;2023-03-01T03:24:44;19.30;;;9.57;;
8007;SDS011;4049;49.468;11.200;2023-03-01T03:27:11;22.17;;;10.17;;
8007;SDS011;4049;49.468;11.200;2023-03-01T03:29:37;20.53;;;10.03;;
8007;SDS011;4049;49.468;11.200;2023-03-01T03:32:04;25.10;;;10.03;;
8007;SDS011;4049;49.468;11.200;2023-03-01T03:34:35;18.53;;;9.37;;
8007;SDS011;4049;49.468;11.200;2023-03-01T03:37:02;18.23;;;10.00;;
8007;SDS011;4049;49.468;11.200;2023-03-01T03:39:49;15.87;;;8.97;;
8007;SDS011;4049;49.468;11.200;2023-03-01T03:42:19;19.53;;;9.53;;
8007;SDS011;4049;49.468;11.200;2023-03-01T03:44:47;17.57;;;9.03;;
8007;SDS011;4049;49.468;11.200;2023-03-01T03:47:14;23.23;;;10.40;;
8007;SDS011;4049;49.468;11.200;2023-03-01T03:49:42;20.40;;;10.00;;
8007;SDS011;4049;49.468;11.200;2023-03-01T03:52:09;19.90;;;10.53;;
8007;SDS011;4049;49.468;11.200;2023-03-01T03:54:38;20.87;;;10.63;;
8007;SDS011;4049;49.468;11.200;2023-03-01T03:57:05;20.07;;;9.93;;
8007;SDS011;4049;49.468;11.200;2023-03-01T03:59:32;22.20;;;9.77;;
8007;SDS011;4049;49.468;11.200;2023-03-01T04:01:59;20.40;;;10.10;;
8007;SDS011;4049;49.468;11.200;2023-03-01T04:04:25;21.27;;;10.40;;
8007;SDS011;4049;49.468;11.200;2023-03-01T04:06:54;20.17;;;9.60;;
8007;SDS011;4049;49.468;11.200;2023-03-01T04:09:20;24.03;;;10.67;;
8007;SDS011;4049;49.468;11.200;2023-03-01T04:11:47;23.73;;;10.43;;
8007;SDS011;4049;49.468;11.200;2023-03-01T04:14:14;22.80;;;10.80;;
8007;SDS011;4049;49.468;11.200;2023-03-01T04:16:41;24.10;;;10.63;;
8007;SDS011;4049;49.468;11.200;2023-03-01T04:19:07;23.33;;;10.17;;
8007;SDS011;4049;49.468;11.200;2023-03-01T04:21:34;24.43;;;11.20;;
8007;SDS011;4049;49.468;11.200;2023-03-01T04:24:03;24.00;;;10.10;;
8007;SDS011;4049;49.468;11.200;2023-03-01T04:26:31;21.13;;;10.07;;
8007;SDS011;4049;49.468;11.200;2023-03-01T04:28:58;22.63;;;10.17;;
8007;SDS011;4049;49.468;11.200;2023-03-01T04:31:25;23.57;;;10.67;;
8007;SDS011;4049;49.468;11.200;2023-03-01T04:33:52;21.37;;;9.93;;
8007;SDS011;4049;49.468;11.200;2023-03-01T04:36:21;21.83;;;9.37;;
8007;SDS011;4049;49.468;11.200;2023-03-01T04:38:49;20.77;;;9.83;;
8007;SDS011;4049;49.468;11.200;2023-03-01T04:41:19;19.30;;;10.37;;
8007;SDS011;4049;49.468;11.200;2023-03-01T04:43:47;19.90;;;9.57;;
8007;SDS011;4049;49.468;11.200;2023-03-01T04:46:14;19.93;;;9.40;;
8007;SDS011;4049;49.468;11.200;2023-03-01T04:48:43;24.73;;;10.43;;
8007;SDS011;4049;49.468;11.200;2023-03-01T04:51:11;21.97;;;9.87;;
8007;SDS011;4049;49.468;11.200;2023-03-01T04:53:39;19.47;;;9.80;;
8007;SDS011;4049;49.468;11.200;2023-03-01T04:56:06;20.47;;;9.50;;
8007;SDS011;4049;49.468;11.200;2023-03-01T04:58:34;18.93;;;9.57;;
8007;SDS011;4049;49.468;11.200;2023-03-01T05:01:08;18.13;;;8.30;;
8007;SDS011;4049;49.468;11.200;2023-03-01T05:03:40;18.67;;;9.57;;
8007;SDS011;4049;49.468;11.200;2023-03-01T05:06:07;23.30;;;9.83;;
8007;SDS011;4049;49.468;11.200;2023-03-01T05:08:34;21.63;;;8.97;;
8007;SDS011;4049;49.468;11.200;2023-03-01T05:11:03;23.27;;;10.40;;
8007;SDS011;4049;49.468;11.200;2023-03-01T05:13:30;28.17;;;11.47;;
8007;SDS011;4049;49.468;11.200;2023-03-01T05:15:59;18.73;;;10.03;;
8007;SDS011;4049;49.468;11.200;2023-03-01T05:18:28;24.47;;;9.87;;
8007;SDS011;4049;49.468;11.200;2023-03-01T05:21:01;22.13;;;10.27;;
8007;SDS011;4049;49.468;11.200;2023-03-01T05:23:29;21.30;;;9.87;;
8007;SDS011;4049;49.468;11.200;2023-03-01T05:25:59;21.67;;;10.03;;
8007;SDS011;4049;49.468;11.200;2023-03-01T05:28:26;21.27;;;9.93;;
8007;SDS011;4049;49.468;11.200;2023-03-01T05:30:54;23.97;;;10.00;;
8007;SDS011;4049;49.468;11.200;2023-03-01T05:33:23;23.40;;;10.80;;
8007;SDS011;4049;49.468;11.200;2023-03-01T05:35:50;24.70;;;9.90;;
8007;SDS011;4049;49.468;11.200;2023-03-01T05:38:18;20.80;;;10.33;;
8007;SDS011;4049;49.468;11.200;2023-03-01T05:40:47;22.33;;;10.23;;
8007;SDS011;4049;49.468;11.200;2023-03-01T05:43:15;25.67;;;10.50;;
8007;SDS011;4049;49.468;11.200;2023-03-01T05:45:43;21.87;;;9.97;;
8007;SDS011;4049;49.468;11.200;2023-03-01T05:48:10;22.03;;;10.70;;
8007;SDS011;4049;49.468;11.200;2023-03-01T05:50:40;21.57;;;10.27;;
8007;SDS011;4049;49.468;11.200;2023-03-01T05:53:09;25.20;;;10.73;;
8007;SDS011;4049;49.468;11.200;2023-03-01T05:55:38;22.77;;;9.80;;
8007;SDS011;4049;49.468;11.200;2023-03-01T05:58:06;19.90;;;10.33;;
8007;SDS011;4049;49.468;11.200;2023-03-01T06:00:35;23.17;;;11.03;;
8007;SDS011;4049;49.468;11.200;2023-03-01T06:03:02;19.97;;;9.10;;
8007;SDS011;4049;49.468;11.200;2023-03-01T06:05:29;21.37;;;9.87;;
8007;SDS011;4049;49.468;11.200;2023-03-01T06:07:59;20.27;;;10.20;;
8007;SDS011;4049;49.468;11.200;2023-03-01T06:10:27;19.93;;;10.03;;
8007;SDS011;4049;49.468;11.200;2023-03-01T06:12:54;21.97;;;10.07;;
8007;SDS011;4049;49.468;11.200;2023-03-01T06:15:21;21.23;;;9.77;;
8007;SDS011;4049;49.468;11.200;2023-03-01T06:17:48;20.57;;;10.67;;
8007;SDS011;4049;49.468;11.200;2023-03-01T06:20:16;23.03;;;10.30;;
8007;SDS011;4049;49.468;11.200;2023-03-01T06:22:44;28.23;;;12.10;;
8007;SDS011;4049;49.468;11.200;2023-03-01T06:25:15;40.37;;;15.70;;
8007;SDS011;4049;49.468;11.200;2023-03-01T06:27:43;35.50;;;15.50;;
8007;SDS011;4049;49.468;11.200;2023-03-01T06:30:11;34.97;;;15.17;;
8007;SDS011;4049;49.468;11.200;2023-03-01T06:32:40;25.57;;;13.20;;
8007;SDS011;4049;49.468;11.200;2023-03-01T06:35:08;26.87;;;12.33;;
8007;SDS011;4049;49.468;11.200;2023-03-01T06:37:35;22.00;;;11.63;;
8007;SDS011;4049;49.468;11.200;2023-03-01T06:40:02;25.50;;;11.97;;
8007;SDS011;4049;49.468;11.200;2023-03-01T06:42:34;26.07;;;12.23;;
8007;SDS011;4049;49.468;11.200;2023-03-01T06:45:01;39.93;;;17.00;;
8007;SDS011;4049;49.468;11.200;2023-03-01T06:47:28;40.80;;;19.00;;
8007;SDS011;4049;49.468;11.200;2023-03-01T06:49:55;48.33;;;18.07;;
8007;SDS011;4049;49.468;11.200;2023-03-01T06:52:22;39.93;;;17.80;;
8007;SDS011;4049;49.468;11.200;2023-03-01T06:54:49;64.10;;;27.53;;
8007;SDS011;4049;49.468;11.200;2023-03-01T06:57:15;44.70;;;17.87;;
8007;SDS011;4049;49.468;11.200;2023-03-01T06:59:44;36.37;;;16.40;;
8007;SDS011;4049;49.468;11.200;2023-03-01T07:02:12;32.47;;;14.33;;
8007;SDS011;4049;49.468;11.200;2023-03-01T07:04:40;32.23;;;13.93;;
8007;SDS011;4049;49.468;11.200;2023-03-01T07:07:07;26.13;;;13.33;;
8007;SDS011;4049;49.468;11.200;2023-03-01T07:09:34;27.07;;;13.77;;
8007;SDS011;4049;49.468;11.200;2023-03-01T07:12:01;27.77;;;13.63;;
8007;SDS011;4049;49.468;11.200;2023-03-01T07:14:28;22.17;;;11.63;;
8007;SDS011;4049;49.468;11.200;2023-03-01T07:16:57;26.50;;;12.83;;
8007;SDS011;4049;49.468;11.200;2023-03-01T07:19:23;28.40;;;12.77;;
8007;SDS011;4049;49.468;11.200;2023-03-01T07:21:50;25.20;;;12.73;;
8007;SDS011;4049;49.468;11.200;2023-03-01T07:24:17;26.07;;;12.67;;
8007;SDS011;4049;49.468;11.200;2023-03-01T07:26:47;26.97;;;13.07;;
8007;SDS011;4049;49.468;11.200;2023-03-01T07:29:14;26.63;;;11.77;;
8007;SDS011;4049;49.468;11.200;2023-03-01T07:31:41;26.80;;;12.13;;
8007;SDS011;4049;49.468;11.200;2023-03-01T07:34:09;25.73;;;12.80;;
8007;SDS011;4049;49.468;11.200;2023-03-01T07:36:36;24.90;;;11.80;;
8007;SDS011;4049;49.468;11.200;2023-03-01T07:39:04;25.77;;;11.77;;
8007;SDS011;4049;49.468;11.200;2023-03-01T07:41:31;24.10;;;11.97;;
8007;SDS011;4049;49.468;11.200;2023-03-01T07:43:58;24.63;;;12.10;;
8007;SDS011;4049;49.468;11.200;2023-03-01T07:46:25;27.53;;;12.57;;
8007;SDS011;4049;49.468;11.200;2023-03-01T07:48:52;27.17;;;13.37;;
8007;SDS011;4049;49.468;11.200;2023-03-01T07:51:20;26.63;;;12.60;;
8007;SDS011;4049;49.468;11.200;2023-03-01T07:53:47;27.10;;;12.40;;
8007;SDS011;4049;49.468;11.200;2023-03-01T07:56:15;35.57;;;13.47;;
8007;SDS011;4049;49.468;11.200;2023-03-01T07:58:43;32.13;;;13.63;;
8007;SDS011;4049;49.468;11.200;2023-03-01T08:01:11;35.33;;;13.53;;
8007;SDS011;4049;49.468;11.200;2023-03-01T08:03:40;34.93;;;12.00;;
8007;SDS011;4049;49.468;11.200;2023-03-01T08:06:08;24.03;;;12.47;;
8007;SDS011;4049;49.468;11.200;2023-03-01T08:08:37;28.07;;;14.80;;
8007;SDS011;4049;49.468;11.200;2023-03-01T08:11:05;26.70;;;13.40;;
8007;SDS011;4049;49.468;11.200;2023-03-01T08:13:33;25.90;;;12.40;;
8007;SDS011;4049;49.468;11.200;2023-03-01T08:16:00;29.00;;;12.57;;
8007;SDS011;4049;49.468;11.200;2023-03-01T08:18:28;25.07;;;12.07;;
8007;SDS011;4049;49.468;11.200;2023-03-01T08:20:55;25.50;;;11.73;;
8007;SDS011;4049;49.468;11.200;2023-03-01T08:23:22;27.63;;;13.30;;
8007;SDS011;4049;49.468;11.200;2023-03-01T08:25:50;26.73;;;11.60;;
8007;SDS011;4049;49.468;11.200;2023-03-01T08:28:17;25.17;;;12.30;;
8007;SDS011;4049;49.468;11.200;2023-03-01T08:30:44;28.97;;;13.13;;
8007;SDS011;4049;49.468;11.200;2023-03-01T08:33:11;25.67;;;13.13;;
8007;SDS011;4049;49.468;11.200;2023-03-01T08:35:38;27.90;;;13.40;;
8007;SDS011;4049;49.468;11.200;2023-03-01T08:38:05;24.43;;;11.17;;
8007;SDS011;4049;49.468;11.200;2023-03-01T08:40:31;26.93;;;12.27;;
8007;SDS011;4049;49.468;11.200;2023-03-01T08:43:00;24.23;;;11.80;;
8007;SDS011;4049;49.468;11.200;2023-03-01T08:45:27;30.40;;;13.67;;
8007;SDS011;4049;49.468;11.200;2023-03-01T08:47:54;30.53;;;13.17;;
8007;SDS011;4049;49.468;11.200;2023-03-01T08:50:21;27.33;;;12.43;;
8007;SDS011;4049;49.468;11.200;2023-03-01T08:52:49;27.53;;;12.87;;
8007;SDS011;4049;49.468;11.200;2023-03-01T08:55:16;26.03;;;13.60;;
8007;SDS011;4049;49.468;11.200;2023-03-01T08:57:43;28.67;;;13.13;;
8007;SDS011;4049;49.468;11.200;2023-03-01T09:00:12;24.17;;;12.00;;
8007;SDS011;4049;49.468;11.200;2023-03-01T09:02:40;26.63;;;13.03;;
8007;SDS011;4049;49.468;11.200;2023-03-01T09:05:07;26.03;;;12.87;;
8007;SDS011;4049;49.468;11.200;2023-03-01T09:07:34;20.53;;;11.57;;
8007;SDS011;4049;49.468;11.200;2023-03-01T09:10:01;28.30;;;14.93;;
8007;SDS011;4049;49.468;11.200;2023-03-01T09:12:28;27.40;;;13.03;;
8007;SDS011;4049;49.468;11.200;2023-03-01T09:14:55;25.20;;;13.33;;
8007;SDS011;4049;49.468;11.200;2023-03-01T09:17:23;23.17;;;12.37;;
8007;SDS011;4049;49.468;11.200;2023-03-01T09:19:50;25.93;;;12.97;;
8007;SDS011;4049;49.468;11.200;2023-03-01T09:22:17;24.13;;;11.90;;
8007;SDS011;4049;49.468;11.200;2023-03-01T09:24:43;24.17;;;12.33;;
8007;SDS011;4049;49.468;11.200;2023-03-01T09:27:10;24.07;;;11.60;;
8007;SDS011;4049;49.468;11.200;2023-03-01T09:29:39;25.27;;;11.83;;
8007;SDS011;4049;49.468;11.200;2023-03-01T09:32:06;22.90;;;10.93;;
8007;SDS011;4049;49.468;11.200;2023-03-01T09:34:35;20.53;;;10.60;;
8007;SDS011;4049;49.468;11.200;2023-03-01T09:37:23;21.13;;;11.03;;
8007;SDS011;4049;49.468;11.200;2023-03-01T09:39:49;25.83;;;11.90;;
8007;SDS011;4049;49.468;11.200;2023-03-01T09:42:16;24.33;;;11.60;;
8007;SDS011;4049;49.468;11.200;2023-03-01T09:44:44;24.27;;;12.80;;
8007;SDS011;4049;49.468;11.200;2023-03-01T09:47:17;23.07;;;11.63;;
8007;SDS011;4049;49.468;11.200;2023-03-01T09:49:48;22.13;;;12.23;;
8007;SDS011;4049;49.468;11.200;2023-03-01T09:52:26;21.90;;;11.37;;
8007;SDS011;4049;49.468;11.200;2023-03-01T09:55:00;27.93;;;13.40;;
8007;SDS011;4049;49.468;11.200;2023-03-01T09:57:28;22.63;;;12.40;;
8007;SDS011;4049;49.468;11.200;2023-03-01T10:00:07;23.00;;;12.10;;
8007;SDS011;4049;49.468;11.200;2023-03-01T10:02:48;27.77;;;13.70;;
8007;SDS011;4049;49.468;11.200;2023-03-01T10:11:12;28.80;;;13.03;;
8007;SDS011;4049;49.468;11.200;2023-03-01T10:13:46;29.73;;;14.20;;
8007;SDS011;4049;49.468;11.200;2023-03-01T10:16:20;25.03;;;12.87;;
8007;SDS011;4049;49.468;11.200;2023-03-01T10:18:51;24.83;;;13.00;;
8007;SDS011;4049;49.468;11.200;2023-03-01T10:21:23;24.63;;;12.03;;
8007;SDS011;4049;49.468;11.200;2023-03-01T10:23:50;23.10;;;11.30;;
8007;SDS011;4049;49.468;11.200;2023-03-01T10:26:30;22.07;;;11.20;;
8007;SDS011;4049;49.468;11.200;2023-03-01T10:29:07;23.27;;;12.00;;
8007;SDS011;4049;49.468;11.200;2023-03-01T10:31:38;24.03;;;12.70;;
8007;SDS011;4049;49.468;11.200;2023-03-01T10:34:09;30.17;;;13.67;;
8007;SDS011;4049;49.468;11.200;2023-03-01T10:36:40;27.37;;;13.33;;
8007;SDS011;4049;49.468;11.200;2023-03-01T10:39:12;39.43;;;15.70;;
8007;SDS011;4049;49.468;11.200;2023-03-01T10:41:54;29.17;;;13.37;;
8007;SDS011;4049;49.468;11.200;2023-03-01T10:44:39;23.97;;;12.27;;
8007;SDS011;4049;49.468;11.200;2023-03-01T10:47:15;22.23;;;11.70;;
8007;SDS011;4049;49.468;11.200;2023-03-01T10:49:53;22.50;;;11.23;;
8007;SDS011;4049;49.468;11.200;2023-03-01T10:52:23;21.93;;;12.20;;
8007;SDS011;4049;49.468;11.200;2023-03-01T10:54:53;24.30;;;12.83;;
8007;SDS011;4049;49.468;11.200;2023-03-01T10:57:26;23.43;;;12.10;;
8007;SDS011;4049;49.468;11.200;2023-03-01T11:00:00;22.03;;;11.43;;
8007;SDS011;4049;49.468;11.200;2023-03-01T11:02:41;21.03;;;11.63;;
8007;SDS011;4049;49.468;11.200;2023-03-01T11:05:15;19.37;;;11.17;;
8007;SDS011;4049;49.468;11.200;2023-03-01T11:07:50;17.10;;;9.77;;
8007;SDS011;4049;49.468;11.200;2023-03-01T11:10:19;23.07;;;10.53;;
8007;SDS011;4049;49.468;11.200;2023-03-01T11:12:47;22.93;;;11.07;;
8007;SDS011;4049;49.468;11.200;2023-03-01T11:15:25;18.10;;;10.87;;
8007;SDS011;4049;49.468;11.200;2023-03-01T11:17:54;20.33;;;10.47;;
8007;SDS011;4049;49.468;11.200;2023-03-01T11:20:26;20.90;;;10.97;;
8007;SDS011;4049;49.468;11.200;2023-03-01T11:22:59;17.27;;;9.87;;
8007;SDS011;4049;49.468;11.200;2023-03-01T11:25:30;19.07;;;11.20;;
8007;SDS011;4049;49.468;11.200;2023-03-01T11:28:00;21.63;;;11.37;;
8007;SDS011;4049;49.468;11.200;2023-03-01T11:30:31;20.57;;;10.67;;
8007;SDS011;4049;49.468;11.200;2023-03-01T11:33:04;19.70;;;10.97;;
8007;SDS011;4049;49.468;11.200;2023-03-01T11:35:41;21.63;;;11.87;;
8007;SDS011;4049;49.468;11.200;2023-03-01T11:38:21;19.20;;;11.17;;
8007;SDS011;4049;49.468;11.200;2023-03-01T11:40:50;18.40;;;11.73;;
8007;SDS011;4049;49.468;11.200;2023-03-01T11:43:26;18.43;;;10.73;;
8007;SDS011;4049;49.468;11.200;2023-03-01T11:49:05;17.47;;;10.50;;
8007;SDS011;4049;49.468;11.200;2023-03-01T11:51:48;16.00;;;10.03;;
8007;SDS011;4049;49.468;11.200;2023-03-01T11:54:30;16.57;;;9.70;;
8007;SDS011;4049;49.468;11.200;2023-03-01T11:57:11;19.07;;;10.60;;
8007;SDS011;4049;49.468;11.200;2023-03-01T12:02:41;18.07;;;10.10;;
8007;SDS011;4049;49.468;11.200;2023-03-01T12:05:48;20.20;;;10.83;;
8007;SDS011;4049;49.468;11.200;2023-03-01T12:08:29;20.53;;;12.37;;
8007;SDS011;4049;49.468;11.200;2023-03-01T12:11:06;18.37;;;10.60;;
8007;SDS011;4049;49.468;11.200;2023-03-01T12:13:59;17.07;;;10.20;;
8007;SDS011;4049;49.468;11.200;2023-03-01T12:16:56;18.80;;;10.93;;
8007;SDS011;4049;49.468;11.200;2023-03-01T12:19:37;15.70;;;9.90;;
8007;SDS011;4049;49.468;11.200;2023-03-01T12:22:18;16.63;;;9.60;;
8007;SDS011;4049;49.468;11.200;2023-03-01T12:25:04;16.43;;;9.03;;
8007;SDS011;4049;49.468;11.200;2023-03-01T12:28:04;18.33;;;11.53;;
8007;SDS011;4049;49.468;11.200;2023-03-01T12:30:56;17.27;;;10.23;;
8007;SDS011;4049;49.468;11.200;2023-03-01T12:33:36;17.33;;;10.17;;
8007;SDS011;4049;49.468;11.200;2023-03-01T12:36:12;19.10;;;11.00;;
8007;SDS011;4049;49.468;11.200;2023-03-01T12:38:49;16.13;;;10.33;;
8007;SDS011;4049;49.468;11.200;2023-03-01T12:44:12;16.43;;;10.07;;
8007;SDS011;4049;49.468;11.200;2023-03-01T12:46:58;24.03;;;13.80;;
8007;SDS011;4049;49.468;11.200;2023-03-01T12:49:33;19.83;;;10.90;;
8007;SDS011;4049;49.468;11.200;2023-03-01T12:52:09;18.53;;;10.50;;
8007;SDS011;4049;49.468;11.200;2023-03-01T12:54:40;17.80;;;10.40;;
8007;SDS011;4049;49.468;11.200;2023-03-01T12:57:09;21.20;;;9.97;;
8007;SDS011;4049;49.468;11.200;2023-03-01T12:59:42;18.77;;;10.83;;
8007;SDS011;4049;49.468;11.200;2023-03-01T13:02:34;19.17;;;10.97;;
8007;SDS011;4049;49.468;11.200;2023-03-01T13:05:07;19.47;;;11.80;;
8007;SDS011;4049;49.468;11.200;2023-03-01T13:07:52;16.93;;;10.60;;
8007;SDS011;4049;49.468;11.200;2023-03-01T13:10:26;20.10;;;11.67;;
8007;SDS011;4049;49.468;11.200;2023-03-01T13:13:02;18.60;;;10.70;;
8007;SDS011;4049;49.468;11.200;2023-03-01T13:15:39;22.37;;;11.90;;
8007;SDS011;4049;49.468;11.200;2023-03-01T13:20:57;19.07;;;11.97;;
8007;SDS011;4049;49.468;11.200;2023-03-01T13:23:27;28.40;;;17.30;;
8007;SDS011;4049;49.468;11.200;2023-03-01T13:26:06;17.90;;;10.57;;
8007;SDS011;4049;49.468;11.200;2023-03-01T13:28:47;16.90;;;9.37;;
8007;SDS011;4049;49.468;11.200;2023-03-01T13:34:45;18.37;;;9.90;;
8007;SDS011;4049;49.468;11.200;2023-03-01T13:37:21;15.80;;;10.27;;
8007;SDS011;4049;49.468;11.200;2023-03-01T13:39:51;15.57;;;9.60;;
8007;SDS011;4049;49.468;11.200;2023-03-01T13:42:35;13.33;;;8.60;;
8007;SDS011;4049;49.468;11.200;2023-03-01T13:48:08;17.70;;;10.03;;
8007;SDS011;4049;49.468;11.200;2023-03-01T13:50:38;16.73;;;9.30;;
8007;SDS011;4049;49.468;11.200;2023-03-01T13:53:14;18.30;;;9.10;;
8007;SDS011;4049;49.468;11.200;2023-03-01T13:55:45;18.40;;;9.93;;
8007;SDS011;4049;49.468;11.200;2023-03-01T13:58:15;16.67;;;11.00;;
8007;SDS011;4049;49.468;11.200;2023-03-01T14:00:46;18.27;;;10.07;;
8007;SDS011;4049;49.468;11.200;2023-03-01T14:03:15;14.23;;;9.00;;
8007;SDS011;4049;49.468;11.200;2023-03-01T14:05:44;20.57;;;11.07;;
8007;SDS011;4049;49.468;11.200;2023-03-01T14:08:25;16.00;;;10.07;;
8007;SDS011;4049;49.468;11.200;2023-03-01T14:10:56;17.03;;;10.83;;
8007;SDS011;4049;49.468;11.200;2023-03-01T14:13:46;13.93;;;9.03;;
8007;SDS011;4049;49.468;11.200;2023-03-01T14:16:25;17.00;;;10.87;;
8007;SDS011;4049;49.468;11.200;2023-03-01T14:19:03;15.23;;;10.63;;
8007;SDS011;4049;49.468;11.200;2023-03-01T14:21:37;17.10;;;9.83;;
8007;SDS011;4049;49.468;11.200;2023-03-01T14:24:04;13.70;;;9.07;;
8007;SDS011;4049;49.468;11.200;2023-03-01T14:26:31;11.93;;;8.53;;
8007;SDS011;4049;49.468;11.200;2023-03-01T14:29:01;14.80;;;8.77;;
8007;SDS011;4049;49.468;11.200;2023-03-01T14:31:32;16.60;;;9.43;;
8007;SDS011;4049;49.468;11.200;2023-03-01T14:34:04;14.90;;;8.60;;
8007;SDS011;4049;49.468;11.200;2023-03-01T14:36:32;13.30;;;8.50;;
8007;SDS011;4049;49.468;11.200;2023-03-01T14:39:00;16.13;;;9.80;;
8007;SDS011;4049;49.468;11.200;2023-03-01T14:41:31;13.83;;;9.33;;
8007;SDS011;4049;49.468;11.200;2023-03-01T14:44:01;15.23;;;8.60;;
8007;SDS011;4049;49.468;11.200;2023-03-01T14:46:32;12.80;;;8.27;;
8007;SDS011;4049;49.468;11.200;2023-03-01T14:49:02;15.13;;;9.40;;
8007;SDS011;4049;49.468;11.200;2023-03-01T14:51:34;13.27;;;8.50;;
8007;SDS011;4049;49.468;11.200;2023-03-01T14:54:03;15.20;;;9.00;;
8007;SDS011;4049;49.468;11.200;2023-03-01T14:56:44;17.50;;;9.43;;
8007;SDS011;4049;49.468;11.200;2023-03-01T14:59:12;13.80;;;9.00;;
8007;SDS011;4049;49.468;11.200;2023-03-01T15:01:39;15.93;;;8.33;;
8007;SDS011;4049;49.468;11.200;2023-03-01T15:04:10;16.70;;;8.97;;
8007;SDS011;4049;49.468;11.200;2023-03-01T15:06:39;13.40;;;8.57;;
8007;SDS011;4049;49.468;11.200;2023-03-01T15:09:06;14.07;;;8.43;;
8007;SDS011;4049;49.468;11.200;2023-03-01T15:11:38;16.70;;;8.60;;
8007;SDS011;4049;49.468;11.200;2023-03-01T15:17:14;18.60;;;9.30;;
8007;SDS011;4049;49.468;11.200;2023-03-01T15:19:48;13.63;;;8.37;;
8007;SDS011;4049;49.468;11.200;2023-03-01T15:22:15;18.20;;;10.60;;
8007;SDS011;4049;49.468;11.200;2023-03-01T15:24:46;14.53;;;8.97;;